sensor_id;sensor_type;location;lat;lon;timestamp;P1;durP1;ratioP1;P2;durP2;ratioP2
83895;SDS011;74045;42.812;74.638;2024-02-23T00:00:49;19.70;;;8.32;;
83895;SDS011;74045;42.812;74.638;2024-02-23T00:03:15;19.98;;;8.23;;
83895;SDS011;74045;42.812;74.638;2024-02-23T00:05:41;23.60;;;8.50;;
83895;SDS011;74045;42.812;74.638;2024-02-23T00:08:07;20.52;;;9.70;;
83895;SDS011;74045;42.812;74.638;2024-02-23T00:10:34;20.85;;;7.65;;
83895;SDS011;74045;42.812;74.638;2024-02-23T00:13:00;21.17;;;9.20;;
83895;SDS011;74045;42.812;74.638;2024-02-23T00:15:26;22.40;;;8.35;;
83895;SDS011;74045;42.812;74.638;2024-02-23T00:17:52;21.50;;;7.80;;
83895;SDS011;74045;42.812;74.638;2024-02-23T00:20:17;20.83;;;6.63;;
83895;SDS011;74045;42.812;74.638;2024-02-23T00:22:46;17.55;;;8.13;;
83895;SDS011;74045;42.812;74.638;2024-02-23T00:25:12;23.77;;;10.52;;
83895;SDS011;74045;42.812;74.638;2024-02-23T00:27:38;18.45;;;8.40;;
83895;SDS011;74045;42.812;74.638;2024-02-23T00:30:06;14.05;;;5.95;;
83895;SDS011;74045;42.812;74.638;2024-02-23T00:32:32;9.45;;;4.15;;
83895;SDS011;74045;42.812;74.638;2024-02-23T00:34:58;9.48;;;4.22;;
83895;SDS011;74045;42.812;74.638;2024-02-23T00:37:24;11.57;;;5.22;;
83895;SDS011;74045;42.812;74.638;2024-02-23T00:39:50;10.40;;;5.25;;
83895;SDS011;74045;42.812;74.638;2024-02-23T00:42:15;14.82;;;5.10;;
83895;SDS011;74045;42.812;74.638;2024-02-23T00:44:41;13.15;;;4.85;;
83895;SDS011;74045;42.812;74.638;2024-02-23T00:47:07;12.27;;;5.72;;
83895;SDS011;74045;42.812;74.638;2024-02-23T00:49:32;15.02;;;6.47;;
83895;SDS011;74045;42.812;74.638;2024-02-23T00:51:58;15.02;;;6.18;;
83895;SDS011;74045;42.812;74.638;2024-02-23T00:54:24;15.55;;;6.15;;
83895;SDS011;74045;42.812;74.638;2024-02-23T00:56:50;12.95;;;5.75;;
83895;SDS011;74045;42.812;74.638;2024-02-23T00:59:16;14.25;;;6.07;;
83895;SDS011;74045;42.812;74.638;2024-02-23T01:01:42;13.95;;;5.60;;
83895;SDS011;74045;42.812;74.638;2024-02-23T01:04:07;18.25;;;7.20;;
83895;SDS011;74045;42.812;74.638;2024-02-23T01:06:33;18.17;;;7.63;;
83895;SDS011;74045;42.812;74.638;2024-02-23T01:08:59;18.90;;;7.00;;
83895;SDS011;74045;42.812;74.638;2024-02-23T01:11:24;20.33;;;7.72;;
83895;SDS011;74045;42.812;74.638;2024-02-23T01:13:50;22.23;;;8.70;;
83895;SDS011;74045;42.812;74.638;2024-02-23T01:16:16;14.40;;;5.90;;
83895;SDS011;74045;42.812;74.638;2024-02-23T01:18:41;15.57;;;6.55;;
83895;SDS011;74045;42.812;74.638;2024-02-23T01:21:07;17.05;;;7.22;;
83895;SDS011;74045;42.812;74.638;2024-02-23T01:23:33;16.40;;;7.45;;
83895;SDS011;74045;42.812;74.638;2024-02-23T01:25:59;21.33;;;7.13;;
83895;SDS011;74045;42.812;74.638;2024-02-23T01:28:25;20.63;;;9.18;;
83895;SDS011;74045;42.812;74.638;2024-02-23T01:30:51;36.40;;;15.45;;
83895;SDS011;74045;42.812;74.638;2024-02-23T01:33:16;36.53;;;15.63;;
83895;SDS011;74045;42.812;74.638;2024-02-23T01:35:42;34.40;;;14.75;;
83895;SDS011;74045;42.812;74.638;2024-02-23T01:38:08;34.80;;;12.70;;
83895;SDS011;74045;42.812;74.638;2024-02-23T01:40:33;27.48;;;13.77;;
83895;SDS011;74045;42.812;74.638;2024-02-23T01:43:05;30.50;;;11.55;;
83895;SDS011;74045;42.812;74.638;2024-02-23T01:45:31;32.42;;;12.57;;
83895;SDS011;74045;42.812;74.638;2024-02-23T01:47:57;30.60;;;12.70;;
83895;SDS011;74045;42.812;74.638;2024-02-23T01:50:25;39.38;;;13.82;;
83895;SDS011;74045;42.812;74.638;2024-02-23T01:52:51;35.83;;;13.68;;
83895;SDS011;74045;42.812;74.638;2024-02-23T01:55:19;38.90;;;14.90;;
83895;SDS011;74045;42.812;74.638;2024-02-23T01:57:46;38.20;;;15.50;;
83895;SDS011;74045;42.812;74.638;2024-02-23T02:00:16;46.28;;;16.85;;
83895;SDS011;74045;42.812;74.638;2024-02-23T02:02:44;48.47;;;18.70;;
83895;SDS011;74045;42.812;74.638;2024-02-23T02:05:10;43.38;;;16.90;;
83895;SDS011;74045;42.812;74.638;2024-02-23T02:07:36;55.60;;;21.02;;
83895;SDS011;74045;42.812;74.638;2024-02-23T02:10:03;49.20;;;19.00;;
83895;SDS011;74045;42.812;74.638;2024-02-23T02:12:32;59.63;;;20.40;;
83895;SDS011;74045;42.812;74.638;2024-02-23T02:14:57;60.58;;;24.80;;
83895;SDS011;74045;42.812;74.638;2024-02-23T02:17:26;54.70;;;23.77;;
83895;SDS011;74045;42.812;74.638;2024-02-23T02:19:54;34.42;;;17.13;;
83895;SDS011;74045;42.812;74.638;2024-02-23T02:22:22;48.00;;;18.13;;
83895;SDS011;74045;42.812;74.638;2024-02-23T02:24:47;55.00;;;21.20;;
83895;SDS011;74045;42.812;74.638;2024-02-23T02:27:13;68.32;;;21.40;;
83895;SDS011;74045;42.812;74.638;2024-02-23T02:29:39;44.22;;;15.57;;
83895;SDS011;74045;42.812;74.638;2024-02-23T02:32:05;30.30;;;14.70;;
83895;SDS011;74045;42.812;74.638;2024-02-23T02:34:31;41.28;;;16.67;;
83895;SDS011;74045;42.812;74.638;2024-02-23T02:36:57;52.30;;;18.50;;
83895;SDS011;74045;42.812;74.638;2024-02-23T02:39:23;41.63;;;16.02;;
83895;SDS011;74045;42.812;74.638;2024-02-23T02:41:48;56.25;;;17.33;;
83895;SDS011;74045;42.812;74.638;2024-02-23T02:44:14;43.25;;;18.42;;
83895;SDS011;74045;42.812;74.638;2024-02-23T02:46:41;64.80;;;20.88;;
83895;SDS011;74045;42.812;74.638;2024-02-23T02:49:07;45.53;;;18.27;;
83895;SDS011;74045;42.812;74.638;2024-02-23T02:51:33;43.10;;;17.60;;
83895;SDS011;74045;42.812;74.638;2024-02-23T02:53:58;51.92;;;18.15;;
83895;SDS011;74045;42.812;74.638;2024-02-23T02:56:24;65.18;;;22.65;;
83895;SDS011;74045;42.812;74.638;2024-02-23T02:58:50;50.40;;;20.30;;
83895;SDS011;74045;42.812;74.638;2024-02-23T03:01:15;62.90;;;22.10;;
83895;SDS011;74045;42.812;74.638;2024-02-23T03:03:41;71.85;;;24.20;;
83895;SDS011;74045;42.812;74.638;2024-02-23T03:06:07;71.25;;;27.92;;
83895;SDS011;74045;42.812;74.638;2024-02-23T03:08:33;87.05;;;28.98;;
83895;SDS011;74045;42.812;74.638;2024-02-23T03:10:59;77.63;;;27.77;;
83895;SDS011;74045;42.812;74.638;2024-02-23T03:13:24;83.45;;;28.30;;
83895;SDS011;74045;42.812;74.638;2024-02-23T03:15:50;70.03;;;27.58;;
83895;SDS011;74045;42.812;74.638;2024-02-23T03:18:16;74.40;;;28.10;;
83895;SDS011;74045;42.812;74.638;2024-02-23T03:20:42;79.03;;;27.35;;
83895;SDS011;74045;42.812;74.638;2024-02-23T03:23:08;74.20;;;26.73;;
83895;SDS011;74045;42.812;74.638;2024-02-23T03:25:33;62.75;;;23.90;;
83895;SDS011;74045;42.812;74.638;2024-02-23T03:27:59;72.10;;;25.88;;
83895;SDS011;74045;42.812;74.638;2024-02-23T03:30:25;59.00;;;22.85;;
83895;SDS011;74045;42.812;74.638;2024-02-23T03:32:51;64.38;;;22.35;;
83895;SDS011;74045;42.812;74.638;2024-02-23T03:35:17;62.10;;;21.42;;
83895;SDS011;74045;42.812;74.638;2024-02-23T03:37:42;48.67;;;19.40;;
83895;SDS011;74045;42.812;74.638;2024-02-23T03:40:08;48.35;;;17.48;;
83895;SDS011;74045;42.812;74.638;2024-02-23T03:42:35;45.22;;;16.90;;
83895;SDS011;74045;42.812;74.638;2024-02-23T03:45:01;40.08;;;16.58;;
83895;SDS011;74045;42.812;74.638;2024-02-23T03:47:27;43.53;;;17.80;;
83895;SDS011;74045;42.812;74.638;2024-02-23T03:49:53;44.50;;;17.17;;
83895;SDS011;74045;42.812;74.638;2024-02-23T03:52:19;39.35;;;16.20;;
83895;SDS011;74045;42.812;74.638;2024-02-23T03:54:45;43.22;;;16.27;;
83895;SDS011;74045;42.812;74.638;2024-02-23T03:57:11;53.47;;;16.98;;
83895;SDS011;74045;42.812;74.638;2024-02-23T03:59:37;39.25;;;14.77;;
83895;SDS011;74045;42.812;74.638;2024-02-23T04:02:03;38.72;;;15.00;;
83895;SDS011;74045;42.812;74.638;2024-02-23T04:04:29;43.88;;;13.90;;
83895;SDS011;74045;42.812;74.638;2024-02-23T04:06:55;50.53;;;15.35;;
83895;SDS011;74045;42.812;74.638;2024-02-23T04:09:20;38.33;;;14.50;;
83895;SDS011;74045;42.812;74.638;2024-02-23T04:11:49;33.45;;;14.02;;
83895;SDS011;74045;42.812;74.638;2024-02-23T04:14:15;39.92;;;15.05;;
83895;SDS011;74045;42.812;74.638;2024-02-23T04:16:41;34.35;;;12.48;;
83895;SDS011;74045;42.812;74.638;2024-02-23T04:19:07;29.42;;;11.82;;
83895;SDS011;74045;42.812;74.638;2024-02-23T04:21:32;39.75;;;15.52;;
83895;SDS011;74045;42.812;74.638;2024-02-23T04:23:58;35.38;;;12.73;;
83895;SDS011;74045;42.812;74.638;2024-02-23T04:26:24;19.70;;;8.38;;
83895;SDS011;74045;42.812;74.638;2024-02-23T04:28:49;37.85;;;14.75;;
83895;SDS011;74045;42.812;74.638;2024-02-23T04:31:15;43.17;;;14.50;;
83895;SDS011;74045;42.812;74.638;2024-02-23T04:33:41;40.30;;;15.45;;
83895;SDS011;74045;42.812;74.638;2024-02-23T04:36:07;44.05;;;14.38;;
83895;SDS011;74045;42.812;74.638;2024-02-23T04:38:33;33.88;;;14.02;;
83895;SDS011;74045;42.812;74.638;2024-02-23T04:41:02;35.22;;;14.27;;
83895;SDS011;74045;42.812;74.638;2024-02-23T04:43:29;32.72;;;12.60;;
83895;SDS011;74045;42.812;74.638;2024-02-23T04:45:55;33.30;;;13.07;;
83895;SDS011;74045;42.812;74.638;2024-02-23T04:48:21;29.15;;;11.55;;
83895;SDS011;74045;42.812;74.638;2024-02-23T04:50:46;35.65;;;12.75;;
83895;SDS011;74045;42.812;74.638;2024-02-23T04:53:12;35.35;;;13.43;;
83895;SDS011;74045;42.812;74.638;2024-02-23T04:55:38;29.02;;;11.60;;
83895;SDS011;74045;42.812;74.638;2024-02-23T04:58:03;23.13;;;9.80;;
83895;SDS011;74045;42.812;74.638;2024-02-23T05:00:29;20.98;;;8.95;;
83895;SDS011;74045;42.812;74.638;2024-02-23T05:03:01;19.38;;;8.35;;
83895;SDS011;74045;42.812;74.638;2024-02-23T05:05:30;15.32;;;7.03;;
83895;SDS011;74045;42.812;74.638;2024-02-23T05:07:56;31.95;;;12.80;;
83895;SDS011;74045;42.812;74.638;2024-02-23T05:10:22;21.73;;;10.05;;
83895;SDS011;74045;42.812;74.638;2024-02-23T05:12:48;24.10;;;9.75;;
83895;SDS011;74045;42.812;74.638;2024-02-23T05:15:14;41.85;;;10.85;;
83895;SDS011;74045;42.812;74.638;2024-02-23T05:17:39;19.25;;;8.23;;
83895;SDS011;74045;42.812;74.638;2024-02-23T05:20:06;28.58;;;10.77;;
83895;SDS011;74045;42.812;74.638;2024-02-23T05:22:33;25.27;;;9.52;;
83895;SDS011;74045;42.812;74.638;2024-02-23T05:24:59;26.88;;;9.70;;
83895;SDS011;74045;42.812;74.638;2024-02-23T05:27:24;27.38;;;10.48;;
83895;SDS011;74045;42.812;74.638;2024-02-23T05:29:52;28.77;;;11.52;;
83895;SDS011;74045;42.812;74.638;2024-02-23T05:32:18;22.20;;;10.82;;
83895;SDS011;74045;42.812;74.638;2024-02-23T05:34:44;20.42;;;8.45;;
83895;SDS011;74045;42.812;74.638;2024-02-23T05:37:10;20.85;;;9.10;;
83895;SDS011;74045;42.812;74.638;2024-02-23T05:39:36;20.48;;;7.63;;
83895;SDS011;74045;42.812;74.638;2024-02-23T05:42:03;20.65;;;8.88;;
83895;SDS011;74045;42.812;74.638;2024-02-23T05:44:29;16.35;;;6.28;;
83895;SDS011;74045;42.812;74.638;2024-02-23T05:46:55;16.80;;;7.30;;
83895;SDS011;74045;42.812;74.638;2024-02-23T05:49:20;21.73;;;8.32;;
83895;SDS011;74045;42.812;74.638;2024-02-23T05:51:46;22.48;;;9.23;;
83895;SDS011;74045;42.812;74.638;2024-02-23T05:54:12;9.38;;;4.55;;
83895;SDS011;74045;42.812;74.638;2024-02-23T05:56:38;23.45;;;9.05;;
83895;SDS011;74045;42.812;74.638;2024-02-23T05:59:03;16.80;;;7.00;;
83895;SDS011;74045;42.812;74.638;2024-02-23T06:01:29;17.80;;;7.43;;
83895;SDS011;74045;42.812;74.638;2024-02-23T06:03:55;23.13;;;7.65;;
83895;SDS011;74045;42.812;74.638;2024-02-23T06:06:21;28.48;;;9.52;;
83895;SDS011;74045;42.812;74.638;2024-02-23T06:08:46;28.42;;;10.80;;
83895;SDS011;74045;42.812;74.638;2024-02-23T06:11:16;25.20;;;10.15;;
83895;SDS011;74045;42.812;74.638;2024-02-23T06:13:42;22.88;;;8.82;;
83895;SDS011;74045;42.812;74.638;2024-02-23T06:16:10;18.92;;;7.97;;
83895;SDS011;74045;42.812;74.638;2024-02-23T06:18:37;56.50;;;24.63;;
83895;SDS011;74045;42.812;74.638;2024-02-23T06:21:13;43.67;;;18.02;;
83895;SDS011;74045;42.812;74.638;2024-02-23T06:23:39;29.83;;;14.77;;
83895;SDS011;74045;42.812;74.638;2024-02-23T06:26:06;35.38;;;15.70;;
83895;SDS011;74045;42.812;74.638;2024-02-23T06:28:31;26.60;;;13.75;;
83895;SDS011;74045;42.812;74.638;2024-02-23T06:30:58;44.20;;;17.67;;
83895;SDS011;74045;42.812;74.638;2024-02-23T06:33:23;30.38;;;12.30;;
83895;SDS011;74045;42.812;74.638;2024-02-23T06:35:50;24.58;;;9.93;;
83895;SDS011;74045;42.812;74.638;2024-02-23T06:38:17;15.63;;;7.80;;
83895;SDS011;74045;42.812;74.638;2024-02-23T06:40:43;25.13;;;11.80;;
83895;SDS011;74045;42.812;74.638;2024-02-23T06:43:09;21.90;;;11.07;;
83895;SDS011;74045;42.812;74.638;2024-02-23T06:45:35;29.63;;;13.63;;
83895;SDS011;74045;42.812;74.638;2024-02-23T06:48:00;34.47;;;14.52;;
83895;SDS011;74045;42.812;74.638;2024-02-23T06:50:26;40.25;;;17.40;;
83895;SDS011;74045;42.812;74.638;2024-02-23T06:52:52;23.40;;;10.35;;
83895;SDS011;74045;42.812;74.638;2024-02-23T06:55:17;21.58;;;7.75;;
83895;SDS011;74045;42.812;74.638;2024-02-23T06:57:43;20.92;;;8.75;;
83895;SDS011;74045;42.812;74.638;2024-02-23T07:00:09;15.55;;;6.53;;
83895;SDS011;74045;42.812;74.638;2024-02-23T07:02:36;24.08;;;11.30;;
83895;SDS011;74045;42.812;74.638;2024-02-23T07:05:02;31.58;;;14.32;;
83895;SDS011;74045;42.812;74.638;2024-02-23T07:07:34;32.70;;;12.32;;
83895;SDS011;74045;42.812;74.638;2024-02-23T07:10:00;25.95;;;10.40;;
83895;SDS011;74045;42.812;74.638;2024-02-23T07:12:26;29.00;;;10.98;;
83895;SDS011;74045;42.812;74.638;2024-02-23T07:14:55;29.27;;;11.80;;
83895;SDS011;74045;42.812;74.638;2024-02-23T07:17:21;29.73;;;12.32;;
83895;SDS011;74045;42.812;74.638;2024-02-23T07:19:47;38.92;;;14.90;;
83895;SDS011;74045;42.812;74.638;2024-02-23T07:22:13;31.38;;;12.00;;
83895;SDS011;74045;42.812;74.638;2024-02-23T07:24:39;30.38;;;11.15;;
83895;SDS011;74045;42.812;74.638;2024-02-23T07:27:06;27.73;;;12.15;;
83895;SDS011;74045;42.812;74.638;2024-02-23T07:29:31;28.50;;;11.85;;
83895;SDS011;74045;42.812;74.638;2024-02-23T07:31:57;30.90;;;12.98;;
83895;SDS011;74045;42.812;74.638;2024-02-23T07:34:23;27.55;;;11.02;;
83895;SDS011;74045;42.812;74.638;2024-02-23T07:36:51;32.90;;;10.48;;
83895;SDS011;74045;42.812;74.638;2024-02-23T07:39:17;29.90;;;12.93;;
83895;SDS011;74045;42.812;74.638;2024-02-23T07:41:44;31.92;;;12.75;;
83895;SDS011;74045;42.812;74.638;2024-02-23T07:44:10;29.63;;;11.88;;
83895;SDS011;74045;42.812;74.638;2024-02-23T07:46:35;29.33;;;11.55;;
83895;SDS011;74045;42.812;74.638;2024-02-23T07:49:02;28.48;;;11.50;;
83895;SDS011;74045;42.812;74.638;2024-02-23T07:51:28;26.73;;;12.02;;
83895;SDS011;74045;42.812;74.638;2024-02-23T07:53:53;26.08;;;11.73;;
83895;SDS011;74045;42.812;74.638;2024-02-23T07:56:20;27.58;;;11.38;;
83895;SDS011;74045;42.812;74.638;2024-02-23T07:58:46;21.63;;;10.40;;
83895;SDS011;74045;42.812;74.638;2024-02-23T08:01:12;23.90;;;9.27;;
83895;SDS011;74045;42.812;74.638;2024-02-23T08:03:39;24.60;;;11.30;;
83895;SDS011;74045;42.812;74.638;2024-02-23T08:06:06;28.73;;;12.48;;
83895;SDS011;74045;42.812;74.638;2024-02-23T08:08:31;25.27;;;10.48;;
83895;SDS011;74045;42.812;74.638;2024-02-23T08:11:00;24.58;;;8.38;;
83895;SDS011;74045;42.812;74.638;2024-02-23T08:13:29;16.30;;;7.32;;
83895;SDS011;74045;42.812;74.638;2024-02-23T08:15:56;17.80;;;8.80;;
83895;SDS011;74045;42.812;74.638;2024-02-23T08:18:23;17.63;;;8.52;;
83895;SDS011;74045;42.812;74.638;2024-02-23T08:20:48;18.38;;;7.80;;
83895;SDS011;74045;42.812;74.638;2024-02-23T08:23:14;17.50;;;8.15;;
83895;SDS011;74045;42.812;74.638;2024-02-23T08:25:40;22.10;;;9.27;;
83895;SDS011;74045;42.812;74.638;2024-02-23T08:28:06;23.23;;;8.88;;
83895;SDS011;74045;42.812;74.638;2024-02-23T08:30:32;22.55;;;10.00;;
83895;SDS011;74045;42.812;74.638;2024-02-23T08:32:58;27.67;;;10.70;;
83895;SDS011;74045;42.812;74.638;2024-02-23T08:35:25;24.42;;;10.70;;
83895;SDS011;74045;42.812;74.638;2024-02-23T08:37:50;21.25;;;9.45;;
83895;SDS011;74045;42.812;74.638;2024-02-23T08:40:16;28.35;;;10.98;;
83895;SDS011;74045;42.812;74.638;2024-02-23T08:42:42;30.20;;;10.73;;
83895;SDS011;74045;42.812;74.638;2024-02-23T08:45:07;30.25;;;11.40;;
83895;SDS011;74045;42.812;74.638;2024-02-23T08:47:35;32.63;;;12.52;;
83895;SDS011;74045;42.812;74.638;2024-02-23T08:50:01;29.73;;;10.77;;
83895;SDS011;74045;42.812;74.638;2024-02-23T08:52:27;38.20;;;12.57;;
83895;SDS011;74045;42.812;74.638;2024-02-23T08:54:53;25.05;;;12.35;;
83895;SDS011;74045;42.812;74.638;2024-02-23T08:57:19;37.88;;;14.50;;
83895;SDS011;74045;42.812;74.638;2024-02-23T08:59:45;32.55;;;14.50;;
83895;SDS011;74045;42.812;74.638;2024-02-23T09:02:12;42.80;;;15.70;;
83895;SDS011;74045;42.812;74.638;2024-02-23T09:04:38;37.85;;;15.38;;
83895;SDS011;74045;42.812;74.638;2024-02-23T09:07:03;33.13;;;13.80;;
83895;SDS011;74045;42.812;74.638;2024-02-23T09:09:30;32.50;;;13.90;;
83895;SDS011;74045;42.812;74.638;2024-02-23T09:11:55;35.15;;;14.40;;
83895;SDS011;74045;42.812;74.638;2024-02-23T09:14:21;30.58;;;13.35;;
83895;SDS011;74045;42.812;74.638;2024-02-23T09:16:47;39.97;;;15.15;;
83895;SDS011;74045;42.812;74.638;2024-02-23T09:19:16;46.20;;;17.10;;
83895;SDS011;74045;42.812;74.638;2024-02-23T09:21:42;51.03;;;19.40;;
83895;SDS011;74045;42.812;74.638;2024-02-23T09:24:08;46.45;;;17.15;;
83895;SDS011;74045;42.812;74.638;2024-02-23T09:26:33;46.47;;;18.65;;
83895;SDS011;74045;42.812;74.638;2024-02-23T09:28:59;42.53;;;18.45;;
83895;SDS011;74045;42.812;74.638;2024-02-23T09:31:25;47.30;;;19.00;;
83895;SDS011;74045;42.812;74.638;2024-02-23T09:33:53;43.58;;;17.95;;
83895;SDS011;74045;42.812;74.638;2024-02-23T09:36:20;44.03;;;18.40;;
83895;SDS011;74045;42.812;74.638;2024-02-23T09:38:46;38.63;;;16.05;;
83895;SDS011;74045;42.812;74.638;2024-02-23T09:41:23;36.58;;;15.10;;
83895;SDS011;74045;42.812;74.638;2024-02-23T09:43:49;32.25;;;14.65;;
83895;SDS011;74045;42.812;74.638;2024-02-23T09:46:16;52.47;;;22.83;;
83895;SDS011;74045;42.812;74.638;2024-02-23T09:48:45;55.25;;;25.73;;
83895;SDS011;74045;42.812;74.638;2024-02-23T09:51:13;55.17;;;26.25;;
83895;SDS011;74045;42.812;74.638;2024-02-23T09:53:40;59.95;;;28.95;;
83895;SDS011;74045;42.812;74.638;2024-02-23T09:56:07;82.35;;;33.95;;
83895;SDS011;74045;42.812;74.638;2024-02-23T09:58:35;78.90;;;35.05;;
83895;SDS011;74045;42.812;74.638;2024-02-23T10:01:03;88.60;;;39.53;;
83895;SDS011;74045;42.812;74.638;2024-02-23T10:03:29;97.75;;;44.40;;
83895;SDS011;74045;42.812;74.638;2024-02-23T10:05:59;107.13;;;45.80;;
83895;SDS011;74045;42.812;74.638;2024-02-23T10:08:30;97.75;;;42.42;;
83895;SDS011;74045;42.812;74.638;2024-02-23T10:10:56;92.03;;;42.05;;
83895;SDS011;74045;42.812;74.638;2024-02-23T10:13:22;88.13;;;40.65;;
83895;SDS011;74045;42.812;74.638;2024-02-23T10:15:52;91.85;;;39.53;;
83895;SDS011;74045;42.812;74.638;2024-02-23T10:18:18;135.98;;;49.50;;
83895;SDS011;74045;42.812;74.638;2024-02-23T10:20:45;98.07;;;38.92;;
83895;SDS011;74045;42.812;74.638;2024-02-23T10:23:11;81.90;;;34.55;;
83895;SDS011;74045;42.812;74.638;2024-02-23T10:25:37;77.22;;;35.05;;
83895;SDS011;74045;42.812;74.638;2024-02-23T10:28:03;74.35;;;32.35;;
83895;SDS011;74045;42.812;74.638;2024-02-23T10:30:31;71.32;;;32.80;;
83895;SDS011;74045;42.812;74.638;2024-02-23T10:32:57;73.30;;;31.90;;
83895;SDS011;74045;42.812;74.638;2024-02-23T10:35:24;71.10;;;30.48;;
83895;SDS011;74045;42.812;74.638;2024-02-23T10:37:51;85.78;;;29.33;;
83895;SDS011;74045;42.812;74.638;2024-02-23T10:40:21;58.47;;;25.67;;
83895;SDS011;74045;42.812;74.638;2024-02-23T10:42:51;60.30;;;27.77;;
83895;SDS011;74045;42.812;74.638;2024-02-23T10:45:21;62.65;;;27.85;;
83895;SDS011;74045;42.812;74.638;2024-02-23T10:47:47;65.13;;;31.92;;
83895;SDS011;74045;42.812;74.638;2024-02-23T10:50:15;61.47;;;27.60;;
83895;SDS011;74045;42.812;74.638;2024-02-23T10:52:43;61.70;;;25.90;;
83895;SDS011;74045;42.812;74.638;2024-02-23T10:55:09;54.90;;;24.60;;
83895;SDS011;74045;42.812;74.638;2024-02-23T10:57:35;52.28;;;24.02;;
83895;SDS011;74045;42.812;74.638;2024-02-23T11:00:04;50.40;;;23.42;;
83895;SDS011;74045;42.812;74.638;2024-02-23T11:02:53;55.88;;;22.33;;
83895;SDS011;74045;42.812;74.638;2024-02-23T11:05:21;62.35;;;26.35;;
83895;SDS011;74045;42.812;74.638;2024-02-23T11:07:48;57.63;;;25.48;;
83895;SDS011;74045;42.812;74.638;2024-02-23T11:10:15;64.05;;;26.60;;
83895;SDS011;74045;42.812;74.638;2024-02-23T11:12:42;63.10;;;25.58;;
83895;SDS011;74045;42.812;74.638;2024-02-23T11:15:09;56.05;;;24.75;;
83895;SDS011;74045;42.812;74.638;2024-02-23T11:17:36;78.72;;;33.83;;
83895;SDS011;74045;42.812;74.638;2024-02-23T11:20:05;78.55;;;31.02;;
83895;SDS011;74045;42.812;74.638;2024-02-23T11:22:35;87.78;;;38.00;;
83895;SDS011;74045;42.812;74.638;2024-02-23T11:25:07;81.07;;;34.30;;
83895;SDS011;74045;42.812;74.638;2024-02-23T11:27:35;85.25;;;34.30;;
83895;SDS011;74045;42.812;74.638;2024-02-23T11:30:05;76.43;;;32.58;;
83895;SDS011;74045;42.812;74.638;2024-02-23T11:32:49;89.53;;;37.75;;
83895;SDS011;74045;42.812;74.638;2024-02-23T11:37:54;82.63;;;34.72;;
83895;SDS011;74045;42.812;74.638;2024-02-23T11:40:25;81.22;;;34.10;;
83895;SDS011;74045;42.812;74.638;2024-02-23T11:42:52;89.75;;;33.35;;
83895;SDS011;74045;42.812;74.638;2024-02-23T11:45:19;78.10;;;32.88;;
83895;SDS011;74045;42.812;74.638;2024-02-23T11:47:45;55.63;;;23.40;;
83895;SDS011;74045;42.812;74.638;2024-02-23T11:50:11;80.45;;;34.13;;
83895;SDS011;74045;42.812;74.638;2024-02-23T11:52:39;85.30;;;36.78;;
83895;SDS011;74045;42.812;74.638;2024-02-23T11:55:06;75.85;;;32.95;;
83895;SDS011;74045;42.812;74.638;2024-02-23T11:57:33;85.18;;;34.42;;
83895;SDS011;74045;42.812;74.638;2024-02-23T12:00:03;81.63;;;32.83;;
83895;SDS011;74045;42.812;74.638;2024-02-23T12:02:32;78.75;;;35.65;;
83895;SDS011;74045;42.812;74.638;2024-02-23T12:05:00;77.45;;;31.95;;
83895;SDS011;74045;42.812;74.638;2024-02-23T12:07:26;77.57;;;31.63;;
83895;SDS011;74045;42.812;74.638;2024-02-23T12:09:55;76.13;;;29.20;;
83895;SDS011;74045;42.812;74.638;2024-02-23T12:12:22;80.10;;;34.15;;
83895;SDS011;74045;42.812;74.638;2024-02-23T12:14:48;77.90;;;32.10;;
83895;SDS011;74045;42.812;74.638;2024-02-23T12:17:14;73.70;;;31.23;;
83895;SDS011;74045;42.812;74.638;2024-02-23T12:19:40;55.72;;;22.55;;
83895;SDS011;74045;42.812;74.638;2024-02-23T12:22:09;73.93;;;29.23;;
83895;SDS011;74045;42.812;74.638;2024-02-23T12:24:36;67.53;;;28.30;;
83895;SDS011;74045;42.812;74.638;2024-02-23T12:27:02;62.25;;;26.50;;
83895;SDS011;74045;42.812;74.638;2024-02-23T12:29:30;69.13;;;27.75;;
83895;SDS011;74045;42.812;74.638;2024-02-23T12:32:05;66.55;;;27.75;;
83895;SDS011;74045;42.812;74.638;2024-02-23T12:34:32;64.15;;;28.13;;
83895;SDS011;74045;42.812;74.638;2024-02-23T12:36:58;66.43;;;28.48;;
83895;SDS011;74045;42.812;74.638;2024-02-23T12:39:24;65.60;;;26.33;;
83895;SDS011;74045;42.812;74.638;2024-02-23T12:41:50;56.90;;;26.25;;
83895;SDS011;74045;42.812;74.638;2024-02-23T12:44:16;54.22;;;24.60;;
83895;SDS011;74045;42.812;74.638;2024-02-23T12:46:42;33.92;;;15.15;;
83895;SDS011;74045;42.812;74.638;2024-02-23T12:49:08;58.63;;;27.30;;
83895;SDS011;74045;42.812;74.638;2024-02-23T12:51:33;49.45;;;24.15;;
83895;SDS011;74045;42.812;74.638;2024-02-23T12:53:59;57.42;;;25.98;;
83895;SDS011;74045;42.812;74.638;2024-02-23T12:56:25;60.25;;;25.75;;
83895;SDS011;74045;42.812;74.638;2024-02-23T12:58:51;62.22;;;25.23;;
83895;SDS011;74045;42.812;74.638;2024-02-23T13:01:19;62.50;;;28.52;;
83895;SDS011;74045;42.812;74.638;2024-02-23T13:03:45;61.97;;;27.35;;
83895;SDS011;74045;42.812;74.638;2024-02-23T13:06:10;51.63;;;21.23;;
83895;SDS011;74045;42.812;74.638;2024-02-23T13:08:38;58.63;;;25.80;;
83895;SDS011;74045;42.812;74.638;2024-02-23T13:11:05;71.85;;;30.80;;
83895;SDS011;74045;42.812;74.638;2024-02-23T13:13:31;63.90;;;28.38;;
83895;SDS011;74045;42.812;74.638;2024-02-23T13:15:58;72.47;;;32.08;;
83895;SDS011;74045;42.812;74.638;2024-02-23T13:18:23;74.82;;;29.77;;
83895;SDS011;74045;42.812;74.638;2024-02-23T13:20:49;68.25;;;29.52;;
83895;SDS011;74045;42.812;74.638;2024-02-23T13:23:18;74.30;;;29.58;;
83895;SDS011;74045;42.812;74.638;2024-02-23T13:25:44;66.68;;;28.10;;
83895;SDS011;74045;42.812;74.638;2024-02-23T13:28:10;64.60;;;28.58;;
83895;SDS011;74045;42.812;74.638;2024-02-23T13:30:36;70.85;;;29.02;;
83895;SDS011;74045;42.812;74.638;2024-02-23T13:33:02;62.22;;;26.48;;
83895;SDS011;74045;42.812;74.638;2024-02-23T13:35:29;57.95;;;26.30;;
83895;SDS011;74045;42.812;74.638;2024-02-23T13:37:55;61.05;;;28.58;;
83895;SDS011;74045;42.812;74.638;2024-02-23T13:40:22;68.80;;;30.58;;
83895;SDS011;74045;42.812;74.638;2024-02-23T13:42:48;71.13;;;29.08;;
83895;SDS011;74045;42.812;74.638;2024-02-23T13:45:18;66.68;;;30.58;;
83895;SDS011;74045;42.812;74.638;2024-02-23T13:47:55;57.67;;;26.48;;
83895;SDS011;74045;42.812;74.638;2024-02-23T13:50:25;49.05;;;22.70;;
83895;SDS011;74045;42.812;74.638;2024-02-23T13:52:51;49.55;;;22.52;;
83895;SDS011;74045;42.812;74.638;2024-02-23T13:55:17;60.08;;;28.25;;
83895;SDS011;74045;42.812;74.638;2024-02-23T13:57:46;54.30;;;22.75;;
83895;SDS011;74045;42.812;74.638;2024-02-23T14:00:15;47.97;;;18.55;;
83895;SDS011;74045;42.812;74.638;2024-02-23T14:02:42;54.15;;;21.98;;
83895;SDS011;74045;42.812;74.638;2024-02-23T14:05:08;61.50;;;23.80;;
83895;SDS011;74045;42.812;74.638;2024-02-23T14:07:34;55.60;;;23.83;;
83895;SDS011;74045;42.812;74.638;2024-02-23T14:10:00;68.35;;;29.05;;